createdAt,value
2023-01-21T00:00:22.833Z,-0.59
2023-01-21T00:02:49.361Z,-0.63
2023-01-21T00:05:15.950Z,-0.65
2023-01-21T00:07:42.442Z,-0.76
2023-01-21T00:10:09.585Z,-0.80
2023-01-21T00:12:37.344Z,-0.81
2023-01-21T00:15:04.427Z,-0.79
2023-01-21T00:17:35.395Z,-0.76
2023-01-21T00:20:03.571Z,-0.78
2023-01-21T00:22:30.100Z,-0.82
2023-01-21T00:24:56.598Z,-0.85
2023-01-21T00:27:23.323Z,-0.84
2023-01-21T00:29:49.833Z,-0.86
2023-01-21T00:32:16.378Z,-0.84
2023-01-21T00:34:43.086Z,-0.96
2023-01-21T00:37:09.606Z,-0.95
2023-01-21T00:39:36.195Z,-1.01
2023-01-21T00:42:04.510Z,-1.02
2023-01-21T00:44:31.016Z,-1.06
2023-01-21T00:46:57.592Z,-1.12
2023-01-21T00:49:24.147Z,-1.13
2023-01-21T00:51:50.669Z,-1.13
2023-01-21T00:54:17.172Z,-1.18
2023-01-21T00:56:43.928Z,-1.11
2023-01-21T00:59:10.527Z,-1.16
2023-01-21T01:01:38.592Z,-1.18
2023-01-21T01:04:06.247Z,-1.25
2023-01-21T01:06:33.433Z,-1.24
2023-01-21T01:09:00.488Z,-1.24
2023-01-21T01:11:27.932Z,-1.28
2023-01-21T01:13:55.447Z,-1.29
2023-01-21T01:16:22.785Z,-1.26
2023-01-21T01:18:49.546Z,-1.20
2023-01-21T01:21:18.177Z,-1.15
2023-01-21T01:23:45.224Z,-1.15
2023-01-21T01:26:14.880Z,-1.19
2023-01-21T01:28:41.754Z,-1.26
2023-01-21T01:31:11.536Z,-1.24
2023-01-21T01:33:38.175Z,-1.26
2023-01-21T01:36:11.943Z,-1.26
2023-01-21T01:38:38.455Z,-1.32
2023-01-21T01:41:05.209Z,-1.35
2023-01-21T01:43:55.339Z,-1.33
2023-01-21T01:46:23.449Z,-1.38
2023-01-21T01:48:59.325Z,-1.44
2023-01-21T01:51:40.182Z,-1.45
2023-01-21T01:54:08.288Z,-1.50
2023-01-21T01:56:38.290Z,-1.50
2023-01-21T01:59:04.906Z,-1.52
2023-01-21T02:01:31.566Z,-1.49
2023-01-21T02:04:04.367Z,-1.57
2023-01-21T02:06:31.271Z,-1.54
2023-01-21T02:08:57.969Z,-1.60
2023-01-21T02:11:24.656Z,-1.61
2023-01-21T02:13:56.517Z,-1.66
2023-01-21T02:16:35.020Z,-1.65
2023-01-21T02:19:08.160Z,-1.68
2023-01-21T02:22:10.431Z,-1.72
2023-01-21T02:24:52.139Z,-1.76
2023-01-21T02:27:49.748Z,-1.81
2023-01-21T02:30:38.077Z,-1.83
2023-01-21T02:33:29.183Z,-1.88
2023-01-21T02:36:31.138Z,-1.95
2023-01-21T02:39:26.184Z,-1.93
2023-01-21T02:42:31.432Z,-1.96
2023-01-21T02:45:16.929Z,-1.97
2023-01-21T02:48:06.117Z,-1.97
2023-01-21T02:50:36.512Z,-1.97
2023-01-21T02:53:04.959Z,-1.95
2023-01-21T02:55:37.127Z,-1.91
2023-01-21T02:58:12.248Z,-1.89
2023-01-21T03:00:44.765Z,-1.90
2023-01-21T03:03:28.254Z,-1.96
2023-01-21T03:06:07.036Z,-1.99
2023-01-21T03:08:56.566Z,-2.05
2023-01-21T03:11:24.866Z,-2.07
2023-01-21T03:14:16.296Z,-2.15
2023-01-21T03:16:57.586Z,-2.20
2023-01-21T03:19:46.947Z,-2.22
2023-01-21T03:22:18.882Z,-2.24
2023-01-21T03:24:49.400Z,-2.24
2023-01-21T03:27:20.832Z,-2.24
2023-01-21T03:29:49.892Z,-2.25
2023-01-21T03:32:18.703Z,-2.22
2023-01-21T03:34:51.568Z,-2.30
2023-01-21T03:37:27.635Z,-2.33
2023-01-21T03:40:05.484Z,-2.31
2023-01-21T03:42:32.371Z,-2.37
2023-01-21T03:44:59.573Z,-2.39
2023-01-21T03:47:36.596Z,-2.43
2023-01-21T03:50:19.976Z,-2.47
2023-01-21T03:52:46.956Z,-2.53
2023-01-21T03:55:15.951Z,-2.57
2023-01-21T03:57:42.499Z,-2.58
2023-01-21T04:00:10.059Z,-2.64
2023-01-21T04:02:36.618Z,-2.62
2023-01-21T04:05:03.450Z,-2.61
2023-01-21T04:07:30.142Z,-2.67
2023-01-21T04:09:56.703Z,-2.64
2023-01-21T04:12:23.350Z,-2.65
2023-01-21T04:14:49.915Z,-2.65
2023-01-21T04:17:16.489Z,-2.67
2023-01-21T04:19:42.975Z,-2.66
2023-01-21T04:22:09.500Z,-2.67
2023-01-21T04:24:36.179Z,-2.65
2023-01-21T04:27:02.830Z,-2.77
2023-01-21T04:29:29.392Z,-2.77
2023-01-21T04:31:55.929Z,-2.81
2023-01-21T04:34:22.544Z,-2.78
2023-01-21T04:36:49.117Z,-2.79
2023-01-21T04:39:15.763Z,-2.82
2023-01-21T04:41:42.286Z,-2.84
2023-01-21T04:44:09.033Z,-2.92
2023-01-21T04:46:35.639Z,-2.89
2023-01-21T04:49:02.207Z,-2.87
2023-01-21T04:51:28.921Z,-2.93
2023-01-21T04:53:55.467Z,-2.92
2023-01-21T04:56:21.952Z,-2.95
2023-01-21T04:58:48.530Z,-2.96
2023-01-21T05:01:15.089Z,-2.96
2023-01-21T05:03:41.728Z,-2.94
2023-01-21T05:06:08.395Z,-2.97
2023-01-21T05:08:34.903Z,-2.98
2023-01-21T05:11:01.435Z,-2.98
2023-01-21T05:13:28.047Z,-3.01
2023-01-21T05:15:54.635Z,-3.03
2023-01-21T05:18:21.229Z,-3.08
2023-01-21T05:20:47.998Z,-3.10
2023-01-21T05:23:14.474Z,-3.09
2023-01-21T05:25:40.998Z,-3.09
2023-01-21T05:28:08.181Z,-3.09
2023-01-21T05:30:34.789Z,-3.11
2023-01-21T05:33:01.295Z,-3.09
2023-01-21T05:35:27.800Z,-3.11
2023-01-21T05:37:54.334Z,-3.04
2023-01-21T05:40:20.946Z,-3.03
2023-01-21T05:42:47.775Z,-3.04
2023-01-21T05:45:14.869Z,-3.11
2023-01-21T05:47:41.465Z,-3.10
2023-01-21T05:50:10.228Z,-3.07
2023-01-21T05:52:37.532Z,-3.00
2023-01-21T05:55:05.010Z,-3.01
2023-01-21T05:57:32.012Z,-2.96
2023-01-21T05:59:58.710Z,-2.91
2023-01-21T06:02:25.337Z,-2.90
2023-01-21T06:04:51.907Z,-2.82
2023-01-21T06:07:18.759Z,-2.79
2023-01-21T06:09:45.367Z,-2.72
2023-01-21T06:12:11.929Z,-2.65
2023-01-21T06:14:38.395Z,-2.60
2023-01-21T06:17:04.962Z,-2.59
2023-01-21T06:19:31.502Z,-2.54
2023-01-21T06:21:58.067Z,-2.51
2023-01-21T06:24:24.790Z,-2.48
2023-01-21T06:26:52.397Z,-2.46
2023-01-21T06:29:19.010Z,-2.44
2023-01-21T06:31:45.635Z,-2.41
2023-01-21T06:34:12.788Z,-2.39
2023-01-21T06:36:42.585Z,-2.38
2023-01-21T06:39:10.686Z,-2.41
2023-01-21T06:41:37.251Z,-2.41
2023-01-21T06:44:04.860Z,-2.41
2023-01-21T06:46:31.423Z,-2.41
2023-01-21T06:48:58.106Z,-2.41
2023-01-21T06:51:24.716Z,-2.41
2023-01-21T06:53:51.224Z,-2.41
2023-01-21T06:56:17.755Z,-2.46
2023-01-21T06:58:44.334Z,-2.46
2023-01-21T07:01:10.828Z,-2.51
2023-01-21T07:03:37.313Z,-2.54
2023-01-21T07:06:04.032Z,-2.49
2023-01-21T07:08:30.519Z,-2.51
2023-01-21T07:10:57.058Z,-2.55
2023-01-21T07:13:23.556Z,-2.58
2023-01-21T07:15:50.100Z,-2.57
2023-01-21T07:18:16.697Z,-2.63
2023-01-21T07:20:43.336Z,-2.61
2023-01-21T07:23:09.970Z,-2.61
2023-01-21T07:25:37.505Z,-2.63
2023-01-21T07:28:04.191Z,-2.66
2023-01-21T07:30:30.663Z,-2.68
2023-01-21T07:32:57.191Z,-2.69
2023-01-21T07:35:23.675Z,-2.70
2023-01-21T07:37:50.154Z,-2.71
2023-01-21T07:40:16.845Z,-2.73
2023-01-21T07:42:43.327Z,-2.74
2023-01-21T07:45:10.271Z,-2.75
2023-01-21T07:47:36.838Z,-2.80
2023-01-21T07:50:08.468Z,-2.79
2023-01-21T07:52:35.016Z,-2.82
2023-01-21T07:55:01.822Z,-2.83
2023-01-21T07:57:28.692Z,-2.83
2023-01-21T07:59:55.396Z,-2.84
2023-01-21T08:02:22.155Z,-2.82
2023-01-21T08:04:48.770Z,-2.85
2023-01-21T08:07:15.380Z,-2.84
2023-01-21T08:09:41.956Z,-2.85
2023-01-21T08:12:09.330Z,-2.85
2023-01-21T08:14:35.884Z,-2.86
2023-01-21T08:17:02.416Z,-2.87
2023-01-21T08:19:28.973Z,-2.90
2023-01-21T08:21:55.651Z,-2.91
2023-01-21T08:24:22.198Z,-2.88
2023-01-21T08:26:49.137Z,-2.88
2023-01-21T08:29:15.774Z,-2.88
2023-01-21T08:31:42.380Z,-2.87
2023-01-21T08:34:08.895Z,-2.87
2023-01-21T08:36:35.392Z,-2.85
2023-01-21T08:39:02.115Z,-2.84
2023-01-21T08:41:28.735Z,-2.83
2023-01-21T08:43:55.245Z,-2.83
2023-01-21T08:46:21.756Z,-2.87
2023-01-21T08:48:48.261Z,-2.85
2023-01-21T08:51:15.053Z,-2.86
2023-01-21T08:53:41.628Z,-2.84
2023-01-21T08:56:08.585Z,-2.82
2023-01-21T08:58:35.152Z,-2.76
2023-01-21T09:01:13.150Z,-2.73
2023-01-21T09:03:39.710Z,-2.73
2023-01-21T09:06:07.108Z,-2.71
2023-01-21T09:08:33.866Z,-2.68
2023-01-21T09:11:01.448Z,-2.65
2023-01-21T09:13:33.957Z,-2.59
2023-01-21T09:16:01.423Z,-2.54
2023-01-21T09:18:28.041Z,-2.47
2023-01-21T09:20:54.613Z,-2.42
2023-01-21T09:23:27.706Z,-2.40
2023-01-21T09:26:03.768Z,-2.37
2023-01-21T09:28:31.914Z,-2.33
2023-01-21T09:30:59.592Z,-2.30
2023-01-21T09:33:27.955Z,-2.27
2023-01-21T09:35:59.578Z,-2.25
2023-01-21T09:38:27.574Z,-2.23
2023-01-21T09:40:57.012Z,-2.20
2023-01-21T09:43:42.421Z,-2.15
2023-01-21T09:46:17.896Z,-2.14
2023-01-21T09:48:46.940Z,-2.13
2023-01-21T09:51:21.230Z,-2.09
2023-01-21T09:53:53.120Z,-2.05
2023-01-21T09:56:41.868Z,-2.02
2023-01-21T09:59:24.102Z,-2.00
2023-01-21T10:01:52.487Z,-1.96
2023-01-21T10:04:47.885Z,-1.91
2023-01-21T10:07:29.732Z,-1.85
2023-01-21T10:10:01.367Z,-1.79
2023-01-21T10:12:47.143Z,-1.74
2023-01-21T10:15:40.093Z,-1.69
2023-01-21T10:18:15.247Z,-1.64
2023-01-21T10:20:53.526Z,-1.59
2023-01-21T10:23:26.503Z,-1.52
2023-01-21T10:25:53.140Z,-1.47
2023-01-21T10:28:23.765Z,-1.44
2023-01-21T10:30:54.687Z,-1.37
2023-01-21T10:33:24.302Z,-1.32
2023-01-21T10:35:58.446Z,-1.27
2023-01-21T10:38:32.339Z,-1.20
2023-01-21T10:41:13.916Z,-1.15
2023-01-21T10:43:59.057Z,-1.10
2023-01-21T10:46:37.564Z,-1.05
2023-01-21T10:49:28.744Z,-0.98
2023-01-21T10:52:05.819Z,-0.94
2023-01-21T10:54:56.753Z,-0.87
2023-01-21T10:57:42.109Z,-0.82
2023-01-21T11:00:20.512Z,-0.74
2023-01-21T11:02:50.509Z,-0.67
2023-01-21T11:05:18.443Z,-0.61
2023-01-21T11:07:48.329Z,-0.56
2023-01-21T11:10:22.123Z,-0.49
2023-01-21T11:12:49.484Z,-0.42
2023-01-21T11:15:19.342Z,-0.35
2023-01-21T11:17:48.615Z,-0.28
2023-01-21T11:20:21.914Z,-0.22
2023-01-21T11:22:49.437Z,-0.15
2023-01-21T11:25:38.677Z,-0.08
2023-01-21T11:28:05.685Z,-0.01
2023-01-21T11:30:50.626Z,0.07
2023-01-21T11:33:26.486Z,0.12
2023-01-21T11:35:55.094Z,0.20
2023-01-21T11:38:35.765Z,0.27
2023-01-21T11:41:22.654Z,0.37
2023-01-21T11:43:54.401Z,0.43
2023-01-21T11:46:33.090Z,0.52
2023-01-21T11:49:08.502Z,0.58
2023-01-21T11:51:36.854Z,0.66
2023-01-21T11:54:23.934Z,0.74
2023-01-21T11:56:56.892Z,0.83
2023-01-21T11:59:24.554Z,0.91
2023-01-21T12:01:55.701Z,1.00
2023-01-21T12:04:22.585Z,1.08
2023-01-21T12:06:51.652Z,1.18
2023-01-21T12:09:20.371Z,1.29
2023-01-21T12:12:03.534Z,1.38
2023-01-21T12:14:44.166Z,1.51
2023-01-21T12:17:22.262Z,1.64
2023-01-21T12:20:11.590Z,1.76
2023-01-21T12:22:50.675Z,1.87
2023-01-21T12:25:53.522Z,1.98
2023-01-21T12:28:25.736Z,2.15
2023-01-21T12:31:12.143Z,2.29
2023-01-21T12:33:47.254Z,2.47
2023-01-21T12:36:25.300Z,2.64
2023-01-21T12:39:05.509Z,2.81
2023-01-21T12:41:32.831Z,2.98
2023-01-21T12:44:18.304Z,3.15
2023-01-21T12:46:49.943Z,3.30
2023-01-21T12:49:23.928Z,3.44
2023-01-21T12:51:56.181Z,3.58
2023-01-21T12:55:07.942Z,3.72
2023-01-21T12:57:41.946Z,3.84
2023-01-21T13:00:26.467Z,3.95
2023-01-21T13:02:59.011Z,4.04
2023-01-21T13:05:37.899Z,4.15
2023-01-21T13:08:22.396Z,4.25
2023-01-21T13:11:06.021Z,4.35
2023-01-21T13:13:36.201Z,4.44
2023-01-21T13:16:07.702Z,4.53
2023-01-21T13:18:41.576Z,4.61
2023-01-21T13:21:13.943Z,4.70
2023-01-21T13:24:06.416Z,4.79
2023-01-21T13:26:47.448Z,4.87
2023-01-21T13:29:36.835Z,4.97
2023-01-21T13:32:25.204Z,5.05
2023-01-21T13:35:06.742Z,5.11
2023-01-21T13:37:59.526Z,5.17
2023-01-21T13:41:02.467Z,5.24
2023-01-21T13:43:54.699Z,5.32
2023-01-21T13:46:45.738Z,5.38
2023-01-21T13:49:36.903Z,5.42
2023-01-21T13:52:22.533Z,5.46
2023-01-21T13:54:51.750Z,5.52
2023-01-21T13:57:27.364Z,5.55
2023-01-21T14:00:03.054Z,5.58
2023-01-21T14:02:42.136Z,5.59
2023-01-21T14:05:16.409Z,5.59
2023-01-21T14:08:03.075Z,5.59
2023-01-21T14:10:36.630Z,5.58
2023-01-21T14:13:33.059Z,5.58
2023-01-21T14:16:23.829Z,5.55
2023-01-21T14:19:09.400Z,5.53
2023-01-21T14:21:38.855Z,5.51
2023-01-21T14:24:17.445Z,5.49
2023-01-21T14:27:24.229Z,5.47
2023-01-21T14:30:08.896Z,5.46
2023-01-21T14:32:41.579Z,5.41
2023-01-21T14:35:34.124Z,5.39
2023-01-21T14:38:32.582Z,5.36
2023-01-21T14:41:07.731Z,5.35
2023-01-21T14:43:35.776Z,5.32
2023-01-21T14:46:23.436Z,5.29
2023-01-21T14:49:10.441Z,5.27
2023-01-21T14:51:58.570Z,5.23
2023-01-21T14:54:27.318Z,5.21
2023-01-21T14:57:01.637Z,5.18
2023-01-21T14:59:34.664Z,5.16
2023-01-21T15:02:04.064Z,5.13
2023-01-21T15:04:35.432Z,5.10
2023-01-21T15:07:09.515Z,5.08
2023-01-21T15:09:42.333Z,5.04
2023-01-21T15:12:21.352Z,5.03
2023-01-21T15:14:48.248Z,4.99
2023-01-21T15:17:52.032Z,4.96
2023-01-21T15:20:40.331Z,4.91
2023-01-21T15:23:21.226Z,4.88
2023-01-21T15:26:11.139Z,4.86
2023-01-21T15:28:44.255Z,4.83
2023-01-21T15:31:20.219Z,4.79
2023-01-21T15:33:59.496Z,4.73
2023-01-21T15:36:35.410Z,4.69
2023-01-21T15:39:11.619Z,4.63
2023-01-21T15:41:59.990Z,4.56
2023-01-21T15:44:43.775Z,4.49
2023-01-21T15:47:19.123Z,4.42
2023-01-21T15:50:00.984Z,4.37
2023-01-21T15:52:47.749Z,4.29
2023-01-21T15:55:39.320Z,4.21
2023-01-21T15:58:21.802Z,4.14
2023-01-21T16:01:32.270Z,4.02
2023-01-21T16:04:29.654Z,3.98
2023-01-21T16:07:19.636Z,3.84
2023-01-21T16:10:01.387Z,3.78
2023-01-21T16:12:44.011Z,3.72
2023-01-21T16:15:19.389Z,3.63
2023-01-21T16:18:03.976Z,3.54
2023-01-21T16:20:32.572Z,3.47
2023-01-21T16:23:02.817Z,3.36
2023-01-21T16:25:29.410Z,3.27
2023-01-21T16:27:56.840Z,3.17
2023-01-21T16:30:29.570Z,3.14
2023-01-21T16:33:12.481Z,3.05
2023-01-21T16:35:56.047Z,2.95
2023-01-21T16:38:28.091Z,2.95
2023-01-21T16:41:06.624Z,2.88
2023-01-21T16:43:49.234Z,2.78
2023-01-21T16:46:23.091Z,2.70
2023-01-21T16:48:57.454Z,2.65
2023-01-21T16:51:28.741Z,2.61
2023-01-21T16:54:19.885Z,2.58
2023-01-21T16:56:53.829Z,2.48
2023-01-21T16:59:22.561Z,2.44
2023-01-21T17:01:50.120Z,2.40
2023-01-21T17:04:16.708Z,2.37
2023-01-21T17:06:45.540Z,2.34
2023-01-21T17:09:25.962Z,2.28
2023-01-21T17:11:53.139Z,2.22
2023-01-21T17:14:30.454Z,2.14
2023-01-21T17:17:00.142Z,2.11
2023-01-21T17:19:37.950Z,2.01
2023-01-21T17:22:17.465Z,1.95
2023-01-21T17:25:02.597Z,1.86
2023-01-21T17:27:30.372Z,1.83
2023-01-21T17:30:25.378Z,1.75
2023-01-21T17:32:55.266Z,1.70
2023-01-21T17:35:23.677Z,1.68
2023-01-21T17:38:00.145Z,1.61
2023-01-21T17:41:08.275Z,1.61
2023-01-21T17:43:39.685Z,1.57
2023-01-21T17:46:06.851Z,1.57
2023-01-21T17:48:39.307Z,1.54
2023-01-21T17:51:19.238Z,1.51
2023-01-21T17:54:02.074Z,1.47
2023-01-21T17:56:49.810Z,1.43
2023-01-21T17:59:34.611Z,1.42
2023-01-21T18:02:03.019Z,1.36
2023-01-21T18:04:35.626Z,1.31
2023-01-21T18:07:02.529Z,1.25
2023-01-21T18:09:29.223Z,1.21
2023-01-21T18:11:57.502Z,1.17
2023-01-21T18:14:25.980Z,1.11
2023-01-21T18:16:56.146Z,1.08
2023-01-21T18:19:33.561Z,1.06
2023-01-21T18:22:02.261Z,1.02
2023-01-21T18:24:29.224Z,1.00
2023-01-21T18:26:57.355Z,1.03
2023-01-21T18:29:28.244Z,1.00
2023-01-21T18:31:54.779Z,0.99
2023-01-21T18:34:21.549Z,0.95
2023-01-21T18:36:48.338Z,0.95
2023-01-21T18:39:18.209Z,0.92
2023-01-21T18:41:46.047Z,0.95
2023-01-21T18:44:12.850Z,0.85
2023-01-21T18:46:42.194Z,0.81
2023-01-21T18:49:11.779Z,0.83
2023-01-21T18:51:38.277Z,0.82
2023-01-21T18:54:04.958Z,0.79
2023-01-21T18:56:31.495Z,0.79
2023-01-21T18:58:58.120Z,0.78
2023-01-21T19:01:24.669Z,0.71
2023-01-21T19:03:53.875Z,0.71
2023-01-21T19:06:22.406Z,0.69
2023-01-21T19:08:48.973Z,0.69
2023-01-21T19:11:16.464Z,0.66
2023-01-21T19:13:42.977Z,0.62
2023-01-21T19:16:27.654Z,0.61
2023-01-21T19:18:54.290Z,0.57
2023-01-21T19:21:20.843Z,0.56
2023-01-21T19:23:47.457Z,0.53
2023-01-21T19:26:14.359Z,0.49
2023-01-21T19:28:41.371Z,0.44
2023-01-21T19:31:08.106Z,0.44
2023-01-21T19:33:34.750Z,0.35
2023-01-21T19:36:12.502Z,0.29
2023-01-21T19:38:39.051Z,0.24
2023-01-21T19:41:05.667Z,0.25
2023-01-21T19:43:32.514Z,0.22
2023-01-21T19:45:59.089Z,0.16
2023-01-21T19:48:27.940Z,0.12
2023-01-21T19:50:54.477Z,0.04
2023-01-21T19:53:22.349Z,0.03
2023-01-21T19:55:52.130Z,0.02
2023-01-21T19:58:22.483Z,0.06
2023-01-21T20:00:51.215Z,0.04
2023-01-21T20:03:18.983Z,0.01
2023-01-21T20:05:47.136Z,-0.01
2023-01-21T20:08:18.983Z,0.00
2023-01-21T20:10:45.470Z,-0.03
2023-01-21T20:13:13.731Z,-0.05
2023-01-21T20:15:42.553Z,-0.05
2023-01-21T20:18:22.367Z,-0.01
2023-01-21T20:20:49.669Z,-0.03
2023-01-21T20:23:18.149Z,-0.03
2023-01-21T20:25:48.210Z,-0.09
2023-01-21T20:28:26.197Z,-0.05
2023-01-21T20:30:54.241Z,-0.07
2023-01-21T20:33:22.702Z,-0.08
2023-01-21T20:35:52.773Z,-0.09
2023-01-21T20:38:31.675Z,-0.09
2023-01-21T20:40:59.695Z,-0.11
2023-01-21T20:43:27.074Z,-0.12
2023-01-21T20:45:55.210Z,-0.15
2023-01-21T20:48:32.902Z,-0.17
2023-01-21T20:51:00.015Z,-0.20
2023-01-21T20:53:27.375Z,-0.18
2023-01-21T20:55:55.584Z,-0.21
2023-01-21T20:58:22.271Z,-0.20
2023-01-21T21:00:49.564Z,-0.22
2023-01-21T21:03:18.215Z,-0.25
2023-01-21T21:05:49.037Z,-0.24
2023-01-21T21:08:18.021Z,-0.27
2023-01-21T21:10:45.762Z,-0.31
2023-01-21T21:13:13.435Z,-0.35
2023-01-21T21:15:41.037Z,-0.34
2023-01-21T21:18:07.587Z,-0.34
2023-01-21T21:20:40.555Z,-0.38
2023-01-21T21:23:08.127Z,-0.36
2023-01-21T21:25:40.063Z,-0.37
2023-01-21T21:28:06.673Z,-0.38
2023-01-21T21:30:34.360Z,-0.39
2023-01-21T21:33:01.626Z,-0.42
2023-01-21T21:35:32.163Z,-0.44
2023-01-21T21:38:12.483Z,-0.46
2023-01-21T21:40:39.019Z,-0.46
2023-01-21T21:43:24.160Z,-0.47
2023-01-21T21:46:09.385Z,-0.49
2023-01-21T21:48:38.852Z,-0.53
2023-01-21T21:51:07.434Z,-0.53
2023-01-21T21:53:34.213Z,-0.51
2023-01-21T21:56:06.288Z,-0.56
2023-01-21T21:58:32.789Z,-0.56
2023-01-21T22:01:17.194Z,-0.56
2023-01-21T22:03:44.560Z,-0.64
2023-01-21T22:06:12.176Z,-0.63
2023-01-21T22:08:40.673Z,-0.69
2023-01-21T22:11:09.482Z,-0.69
2023-01-21T22:13:40.145Z,-0.76
2023-01-21T22:16:10.603Z,-0.81
2023-01-21T22:18:37.127Z,-0.86
2023-01-21T22:21:13.065Z,-0.91
2023-01-21T22:23:39.638Z,-0.86
2023-01-21T22:26:08.431Z,-0.92
2023-01-21T22:28:36.075Z,-0.94
2023-01-21T22:31:04.547Z,-1.02
2023-01-21T22:33:32.644Z,-1.04
2023-01-21T22:36:03.656Z,-1.04
2023-01-21T22:38:31.618Z,-1.04
2023-01-21T22:40:58.100Z,-1.13
2023-01-21T22:43:24.689Z,-1.16
2023-01-21T22:45:54.297Z,-1.14
2023-01-21T22:48:21.438Z,-1.18
2023-01-21T22:50:53.054Z,-1.19
2023-01-21T22:53:20.035Z,-1.21
2023-01-21T22:55:57.583Z,-1.22
2023-01-21T22:58:25.223Z,-1.21
2023-01-21T23:00:52.974Z,-1.22
2023-01-21T23:03:20.355Z,-1.30
2023-01-21T23:05:47.352Z,-1.35
2023-01-21T23:08:15.195Z,-1.37
2023-01-21T23:10:42.690Z,-1.35
2023-01-21T23:13:10.613Z,-1.32
2023-01-21T23:15:45.781Z,-1.39
2023-01-21T23:18:13.871Z,-1.37
2023-01-21T23:20:42.089Z,-1.40
2023-01-21T23:23:12.351Z,-1.45
2023-01-21T23:25:43.681Z,-1.50
2023-01-21T23:28:12.234Z,-1.51
2023-01-21T23:30:38.939Z,-1.53
2023-01-21T23:33:06.072Z,-1.53
2023-01-21T23:35:34.506Z,-1.55
2023-01-21T23:38:02.783Z,-1.60
2023-01-21T23:40:29.359Z,-1.64
2023-01-21T23:42:55.865Z,-1.65
2023-01-21T23:45:22.486Z,-1.65
2023-01-21T23:47:49.046Z,-1.64
2023-01-21T23:50:16.025Z,-1.65
2023-01-21T23:52:43.944Z,-1.67
2023-01-21T23:55:10.821Z,-1.65
2023-01-21T23:57:37.508Z,-1.62
